Terminal Aerodrome Forecast
Issued by NWS

Home | Current Version | Previous Version | Text Only | Print | Product List | Glossary On
Versions: 1 2 3 4 5 6 7 8 9 10 11 12 13 14 15 16 17 18 19
000
FTUS43 KPAH 191120
TAFCGI
TAF
KCGI 191120Z 1912/2012 09005KT 3SM -SHRA BR SCT006 OVC015
      TEMPO 1912/1915 2SM TSRA BR OVC006CB
     FM191800 22006KT P6SM OVC020
     FM200000 20006KT P6SM VCTS BKN030CB
     FM200600 21006KT 4SM -SHRA BR BKN020 PROB30 2006/2012 2SM TSRA
      BR OVC010CB=

USA.gov is the U.S. government's official web portal to all federal, state and local government web resources and services.